Share

Post, TX

6:36 AM CDT on April 24, 2014 (GMT -0500)
WT_Meso Post 1S (MPTST2) Elev 2598 ft | 33.20 °N, 101.37 °W | Change Station

Current weather conditions updated 41 minutes ago

Clear
Clear
61 °F
Feels Like 61 °F
N
12
Wind Variable Wind from West
Gusts 15.0 mph
Sunrise 7:04 AM
Sunset 8:22 PM
Moon Waning Crescent

Today is forecast to be Much Cooler than yesterday.

Pressure 29.82 in
Visibility 10.0 miles
Clouds Clear
Dew Point 22 °F
Humidity 22%
Rainfall -999.00 in
Snow Depth Not available.
UV 0 out of 16
Pollen 7.10 out of 12
Air Quality Not available.
Flu Activity Local Activity
METAR KSNK 241115Z AUTO 26006KT 10SM CLR 18/05 A2982 RMK AO2 T01770053

More Conditions Fewer Conditions

Pressure 29.82 in
Visibility 10.0 miles
Clouds Clear
Dew Point 22 °F
Humidity 22%
Rainfall -999.00 in
Snow Depth Not available.
UV 0 out of 16
Pollen 7.10 out of 12
Air Quality Not available.
Flu Activity Local Activity
METAR KSNK 241115Z AUTO 26006KT 10SM CLR 18/05 A2982 RMK AO2 T01770053

More Conditions Fewer Conditions

10-Day Weather Forecast

Almanac

Astronomy

Apr. 24, 2014 Rise Set
Actual Time 7:04 AM CDT 8:22 PM CDT
Civil Twilight 6:39 AM CDT 8:48 PM CDT
Nautical Twilight 6:08 AM CDT 9:19 PM CDT
Astronomical Twilight 5:35 AM CDT 9:52 PM CDT
Moon 4:01 AM CDT 3:54 PM CDT
Length of Visible Light 14h 09m
Length of Day
13h 17m
Tomorrow will be 1m 51s longer.
Waning Crescent, 26% of the Moon is Illuminated
Today
Waning Crescent
Apr 29
New
May 6
First Quarter
May 14
Full
May 21
Last Quarter

Today's Extremes

State Highs State Lows

Community

  • Stacked
    Stacked
  • clouds approaching Red Sox Nation
    clouds approaching Red Sox Nation
  • Balance
    Balance
  • Nestled In
    Nestled In
  • Stunning Sunrise
    Stunning Sunrise

WunderPhotos

Upload Photos

1,704,584 photos uploaded!

WunderBlogs® & News

Nearby

Snow Depth

Station Depth Elevation
No new snow has been reported.

Coastal Water Temperatures

Place Temperature
No Stations Reporting

Earthquake Activity

City Distance Mag. Time & Date
No recent earthquake activity has been reported nearby.
Minimum magnitude displayed is 2.5.

Nearby Weather Stations

Station Location Temp. Dew Point Humidity Wind Precip. Elev Updated Type
WT_Meso Post 1S, Post, TX 61 °F 22 °F 22% West  at  12 mph 0.00 in / hr 2598 ft 5:55 AM CDT MADIS
Turkey Ridge, Justiceburg, TX 58.7 °F 31 °F 35% West  at  4.1 mph 0.00 in / hr 2336 ft 6:36 AM CDT Rapid Fire
WT_Meso Slaton 2NE, Slaton, TX 59 °F 20 °F 22% West  at  8 mph 0.00 in / hr 3064 ft 5:25 AM CDT MADIS
WT_Meso Tahoka 3NE, Tahoka, TX 63 °F 18 °F 19% WNW  at  21 mph 0.00 in / hr 3104 ft 5:55 AM CDT MADIS

Show More Stations Show Fewer Stations

What do you think?

We're not finished. Please let us know what you like, what you don't like, and what you are still missing.